createdAt,value
2023-01-18T00:00:21.558Z,9.05
2023-01-18T00:05:24.393Z,9.43
2023-01-18T00:10:26.916Z,12.90
2023-01-18T00:15:31.550Z,10.75
2023-01-18T00:20:34.044Z,12.25
2023-01-18T00:25:36.532Z,12.05
2023-01-18T00:30:40.691Z,11.93
2023-01-18T00:35:43.150Z,12.88
2023-01-18T00:40:45.948Z,14.25
2023-01-18T00:45:49.875Z,11.17
2023-01-18T00:50:52.415Z,14.93
2023-01-18T00:55:54.890Z,15.80
2023-01-18T01:00:58.725Z,15.57
2023-01-18T01:06:18.874Z,16.08
2023-01-18T01:11:21.279Z,17.48
2023-01-18T01:16:42.917Z,18.67
2023-01-18T01:22:03.228Z,18.38
2023-01-18T01:27:05.806Z,18.90
2023-01-18T01:32:09.582Z,19.27
2023-01-18T01:37:12.033Z,19.88
2023-01-18T01:42:14.738Z,17.88
2023-01-18T01:47:24.897Z,16.53
2023-01-18T01:52:30.040Z,18.23
2023-01-18T01:57:34.042Z,16.73
2023-01-18T02:02:38.025Z,17.17
2023-01-18T02:07:40.711Z,15.63
2023-01-18T02:12:44.957Z,16.27
2023-01-18T02:17:55.080Z,17.95
2023-01-18T02:23:14.351Z,18.48
2023-01-18T02:28:22.376Z,18.95
2023-01-18T02:33:30.282Z,18.50
2023-01-18T02:38:39.258Z,20.33
2023-01-18T02:44:03.956Z,20.08
2023-01-18T02:49:08.057Z,20.92
2023-01-18T02:54:13.463Z,19.83
2023-01-18T02:59:19.731Z,20.00
2023-01-18T03:04:26.127Z,19.85
2023-01-18T03:09:29.148Z,20.50
2023-01-18T03:14:49.691Z,21.55
2023-01-18T03:20:10.013Z,21.67
2023-01-18T03:25:14.966Z,21.02
2023-01-18T03:30:38.894Z,20.63
2023-01-18T03:35:43.905Z,19.52
2023-01-18T03:40:47.536Z,20.95
2023-01-18T03:45:50.437Z,21.15
2023-01-18T03:50:56.128Z,22.27
2023-01-18T03:56:01.667Z,22.65
2023-01-18T04:01:05.559Z,22.48
2023-01-18T04:06:09.875Z,24.55
2023-01-18T04:11:12.315Z,24.17
2023-01-18T04:16:14.842Z,25.30
2023-01-18T04:21:35.643Z,28.80
2023-01-18T04:26:40.461Z,26.80
2023-01-18T04:31:42.908Z,26.70
2023-01-18T04:36:46.360Z,27.73
2023-01-18T04:41:50.229Z,26.05
2023-01-18T04:46:52.798Z,25.73
2023-01-18T04:51:55.339Z,26.23
2023-01-18T04:56:59.244Z,24.73
2023-01-18T05:02:01.793Z,27.13
2023-01-18T05:07:04.564Z,25.33
2023-01-18T05:12:08.520Z,25.37
2023-01-18T05:17:10.932Z,25.38
2023-01-18T05:22:17.381Z,25.48
2023-01-18T05:27:21.212Z,23.88
2023-01-18T05:32:24.709Z,27.65
2023-01-18T05:42:30.833Z,24.30
2023-01-18T05:47:33.530Z,23.77
2023-01-18T05:52:35.969Z,25.33
2023-01-18T05:57:43.961Z,26.40
2023-01-18T06:03:10.656Z,26.75
2023-01-18T06:08:13.411Z,28.70
2023-01-18T06:13:36.722Z,24.20
2023-01-18T06:18:41.506Z,26.85
2023-01-18T06:23:43.947Z,26.33
2023-01-18T06:28:47.405Z,26.55
2023-01-18T06:33:51.262Z,26.95
2023-01-18T06:38:53.864Z,26.42
2023-01-18T06:43:56.378Z,24.13
2023-01-18T06:49:00.368Z,25.48
2023-01-18T06:54:02.894Z,24.25
2023-01-18T06:59:08.269Z,25.75
2023-01-18T07:04:12.338Z,25.48
2023-01-18T07:09:15.213Z,23.38
2023-01-18T07:14:17.775Z,22.58
2023-01-18T07:19:21.595Z,23.73
2023-01-18T07:24:24.075Z,23.98
2023-01-18T07:29:26.534Z,25.77
2023-01-18T07:34:30.311Z,24.65
2023-01-18T07:39:32.792Z,25.90
2023-01-18T07:44:35.322Z,24.00
2023-01-18T07:49:42.542Z,22.90
2023-01-18T07:54:45.700Z,26.58
2023-01-18T07:59:48.125Z,23.88
2023-01-18T08:04:52.147Z,24.25
2023-01-18T08:09:54.774Z,25.25
2023-01-18T08:14:57.236Z,24.47
2023-01-18T08:20:01.046Z,24.45
2023-01-18T08:25:03.697Z,23.77
2023-01-18T08:30:06.995Z,21.43
2023-01-18T08:35:11.241Z,18.42
2023-01-18T08:40:14.265Z,15.57
2023-01-18T08:45:18.059Z,11.57
2023-01-18T08:50:22.111Z,8.07
2023-01-18T08:55:24.681Z,7.32
2023-01-18T09:00:30.094Z,8.20
2023-01-18T09:05:34.267Z,8.13
2023-01-18T09:10:38.676Z,7.90
2023-01-18T09:15:41.617Z,8.13
2023-01-18T09:20:45.465Z,8.05
2023-01-18T09:25:48.087Z,8.10
2023-01-18T09:30:50.505Z,8.07
2023-01-18T09:35:55.654Z,7.93
2023-01-18T09:40:58.598Z,8.77
2023-01-18T09:46:02.153Z,8.60
2023-01-18T09:56:11.410Z,8.60
2023-01-18T10:01:17.238Z,8.63
2023-01-18T10:06:22.536Z,7.97
2023-01-18T10:11:31.265Z,7.35
2023-01-18T10:16:34.920Z,7.60
2023-01-18T10:21:42.240Z,7.65
2023-01-18T10:26:49.058Z,8.30
2023-01-18T10:31:56.663Z,8.05
2023-01-18T10:37:04.387Z,7.97
2023-01-18T10:42:13.838Z,7.53
2023-01-18T10:47:18.003Z,7.00
2023-01-18T10:52:24.234Z,7.43
2023-01-18T10:57:30.657Z,7.18
2023-01-18T11:02:36.090Z,6.88
2023-01-18T11:07:38.602Z,7.38
2023-01-18T11:12:47.999Z,6.40
2023-01-18T11:18:01.537Z,5.75
2023-01-18T11:23:05.357Z,6.35
2023-01-18T11:28:15.007Z,5.65
2023-01-18T11:33:18.147Z,5.40
2023-01-18T11:38:20.811Z,5.15
2023-01-18T11:43:27.960Z,5.27
2023-01-18T11:48:32.948Z,5.00
2023-01-18T11:53:43.751Z,4.93
2023-01-18T11:58:49.622Z,5.22
2023-01-18T12:03:57.209Z,5.40
2023-01-18T12:09:04.231Z,5.03
2023-01-18T12:14:12.860Z,4.93
2023-01-18T12:19:31.300Z,4.53
2023-01-18T12:24:38.681Z,4.70
2023-01-18T12:30:02.223Z,4.85
2023-01-18T12:35:24.969Z,5.27
2023-01-18T12:40:33.202Z,4.95
2023-01-18T12:45:37.856Z,4.15
2023-01-18T12:50:43.524Z,4.95
2023-01-18T12:55:48.456Z,4.93
2023-01-18T13:00:53.322Z,4.18
2023-01-18T13:05:58.602Z,5.50
2023-01-18T13:11:04.836Z,5.40
2023-01-18T13:16:13.786Z,4.88
2023-01-18T13:21:20.742Z,5.32
2023-01-18T13:26:25.941Z,5.07
2023-01-18T13:31:31.323Z,5.88
2023-01-18T13:36:44.727Z,5.28
2023-01-18T13:42:07.931Z,5.40
2023-01-18T13:47:29.124Z,6.18
2023-01-18T13:52:35.625Z,5.85
2023-01-18T13:57:38.310Z,5.55
2023-01-18T14:02:43.371Z,5.65
2023-01-18T14:07:48.952Z,6.00
2023-01-18T14:12:52.206Z,5.30
2023-01-18T14:17:58.787Z,6.10
2023-01-18T14:23:11.156Z,5.88
2023-01-18T14:28:15.587Z,6.07
2023-01-18T14:33:21.218Z,5.85
2023-01-18T14:38:25.900Z,5.88
2023-01-18T14:43:29.731Z,6.65
2023-01-18T14:48:34.531Z,7.25
2023-01-18T14:53:47.389Z,7.53
2023-01-18T14:58:53.660Z,7.55
2023-01-18T15:03:56.566Z,8.38
2023-01-18T15:09:02.657Z,7.50
2023-01-18T15:14:23.165Z,8.18
2023-01-18T15:19:30.790Z,8.20
2023-01-18T15:24:37.852Z,8.48
2023-01-18T15:29:40.356Z,7.70
2023-01-18T15:35:40.741Z,7.60
2023-01-18T15:40:53.905Z,7.90
2023-01-18T15:45:57.373Z,7.83
2023-01-18T15:51:06.062Z,7.03
2023-01-18T15:56:15.835Z,8.23
2023-01-18T16:01:20.565Z,8.40
2023-01-18T16:06:32.284Z,7.55
2023-01-18T16:11:36.877Z,7.35
2023-01-18T16:16:40.009Z,6.85
2023-01-18T16:34:17.086Z,6.47
2023-01-18T16:40:21.448Z,6.82
2023-01-18T17:10:22.237Z,5.47
2023-01-18T17:15:27.676Z,5.13
2023-01-18T17:20:31.827Z,5.57
2023-01-18T17:25:36.480Z,5.10
2023-01-18T17:30:39.231Z,5.85
2023-01-18T17:35:41.860Z,5.60
2023-01-18T17:40:46.034Z,5.70
2023-01-18T17:45:59.819Z,5.18
2023-01-18T17:51:05.379Z,5.57
2023-01-18T17:56:10.052Z,6.70
2023-01-18T18:01:13.294Z,5.30
2023-01-18T18:06:26.083Z,6.10
2023-01-18T18:11:34.904Z,6.28
2023-01-18T18:16:43.246Z,5.75
2023-01-18T18:21:46.384Z,6.20
2023-01-18T18:26:50.511Z,6.32
2023-01-18T18:31:55.193Z,6.10
2023-01-18T18:36:57.692Z,6.45
2023-01-18T18:42:02.645Z,7.68
2023-01-18T18:47:06.808Z,8.18
2023-01-18T18:52:10.040Z,6.53
2023-01-18T18:57:13.865Z,7.18
2023-01-18T19:02:16.466Z,7.80
2023-01-18T19:07:18.982Z,7.93
2023-01-18T19:12:25.979Z,8.35
2023-01-18T19:17:31.412Z,8.52
2023-01-18T19:22:34.155Z,7.85
2023-01-18T19:27:37.947Z,8.48
2023-01-18T19:32:40.710Z,7.82
2023-01-18T19:37:43.415Z,8.03
2023-01-18T19:42:54.219Z,8.57
2023-01-18T19:48:25.340Z,8.35
2023-01-18T19:53:28.517Z,9.40
2023-01-18T19:58:33.655Z,9.55
2023-01-18T20:03:36.951Z,9.52
2023-01-18T20:08:39.421Z,9.98
2023-01-18T20:13:44.037Z,11.50
2023-01-18T20:18:46.996Z,10.30
2023-01-18T20:23:49.396Z,10.30
2023-01-18T20:28:54.586Z,8.90
2023-01-18T20:33:57.053Z,9.82
2023-01-18T20:38:59.598Z,10.38
2023-01-18T20:44:05.719Z,10.13
2023-01-18T20:49:08.578Z,10.50
2023-01-18T20:54:11.086Z,9.23
2023-01-18T20:59:15.208Z,10.23
2023-01-18T21:04:18.022Z,10.10
2023-01-18T21:09:21.068Z,9.60
2023-01-18T21:14:25.039Z,9.80
2023-01-18T21:20:16.011Z,11.15
2023-01-18T21:25:18.498Z,10.18
2023-01-18T21:30:22.599Z,10.10
2023-01-18T21:35:25.263Z,12.75
2023-01-18T21:40:27.778Z,11.53
2023-01-18T21:45:49.421Z,12.35
2023-01-18T21:51:10.956Z,11.57
2023-01-18T21:56:13.695Z,12.13
2023-01-18T22:01:18.582Z,12.03
2023-01-18T22:06:21.545Z,12.65
2023-01-18T22:11:24.004Z,12.85
2023-01-18T22:16:30.728Z,11.38
2023-01-18T22:21:34.339Z,13.05
2023-01-18T22:31:40.634Z,11.98
2023-01-18T22:36:43.073Z,12.00
2023-01-18T22:41:45.566Z,11.93
2023-01-18T22:46:49.449Z,12.48
2023-01-18T22:51:51.911Z,12.70
2023-01-18T22:56:54.330Z,12.32
2023-01-18T23:01:58.578Z,13.23
2023-01-18T23:07:01.588Z,14.07
2023-01-18T23:12:04.151Z,14.73
2023-01-18T23:17:27.782Z,15.13
2023-01-18T23:22:31.229Z,16.67
2023-01-18T23:27:33.817Z,15.38
2023-01-18T23:32:37.564Z,15.85
2023-01-18T23:37:40.065Z,17.05
2023-01-18T23:43:00.372Z,17.95
2023-01-18T23:48:26.234Z,16.95
2023-01-18T23:53:46.075Z,18.85
2023-01-18T23:58:48.516Z,19.20
